Terminal Aerodrome Forecast
Issued by NWS Charleston, WV

Current Version | Previous Version | Graphics & Text | Print | Product List | Glossary On
Versions: 1 2 3 4 5 6 7 8 9 10 11 12 13 14 15 16 17 18 19 20 21 22 23 24
000
FTUS41 KRLX 280541
TAFEKN
TAF
KEKN 280541Z 2806/2906 VRB03KT 1/2SM FG OVC002
     FM281100 VRB03KT 2SM SHRA BR OVC008
     FM281500 18006KT 4SM SHRA OVC013
     FM281900 25007KT P6SM VCSH BKN016
     FM290300 00000KT 5SM BR VCSH BKN023=

USA.gov is the U.S. government's official web portal to all federal, state and local government web resources and services.